createdAt,value
2023-02-25T00:00:26.920Z,982.51
2023-02-25T00:01:26.812Z,982.57
2023-02-25T00:02:26.909Z,982.53
2023-02-25T00:03:26.901Z,982.54
2023-02-25T00:04:26.796Z,982.54
2023-02-25T00:05:26.835Z,982.45
2023-02-25T00:06:26.723Z,982.61
2023-02-25T00:07:26.756Z,982.54
2023-02-25T00:08:26.776Z,982.58
2023-02-25T00:09:26.728Z,982.53
2023-02-25T00:10:26.720Z,982.46
2023-02-25T00:11:26.695Z,982.51
2023-02-25T00:12:26.749Z,982.54
2023-02-25T00:13:26.771Z,982.60
2023-02-25T00:14:26.819Z,982.62
2023-02-25T00:15:36.275Z,982.61
2023-02-25T00:16:26.921Z,982.59
2023-02-25T00:17:26.737Z,982.59
2023-02-25T00:18:26.679Z,982.58
2023-02-25T00:19:26.989Z,982.57
2023-02-25T00:20:26.676Z,982.58
2023-02-25T00:21:26.732Z,982.59
2023-02-25T00:22:26.656Z,982.69
2023-02-25T00:23:26.771Z,982.60
2023-02-25T00:24:26.634Z,982.58
2023-02-25T00:25:26.616Z,982.61
2023-02-25T00:26:26.600Z,982.59
2023-02-25T00:27:26.571Z,982.59
2023-02-25T00:28:26.626Z,982.63
2023-02-25T00:29:26.615Z,982.49
2023-02-25T00:30:26.659Z,982.46
2023-02-25T00:31:26.663Z,982.62
2023-02-25T00:32:26.708Z,982.64
2023-02-25T00:33:26.512Z,982.66
2023-02-25T00:34:26.493Z,982.62
2023-02-25T00:35:26.574Z,982.54
2023-02-25T00:36:26.472Z,982.57
2023-02-25T00:37:26.522Z,982.56
2023-02-25T00:38:26.547Z,982.46
2023-02-25T00:39:26.523Z,982.57
2023-02-25T00:40:26.411Z,982.41
2023-02-25T00:41:26.524Z,982.65
2023-02-25T00:42:26.476Z,982.55
2023-02-25T00:43:26.445Z,982.55
2023-02-25T00:44:26.443Z,982.52
2023-02-25T00:45:26.390Z,982.53
2023-02-25T00:46:26.726Z,982.58
2023-02-25T00:47:26.469Z,982.51
2023-02-25T00:48:26.443Z,982.65
2023-02-25T00:49:32.129Z,982.64
2023-02-25T00:50:28.313Z,982.58
2023-02-25T00:51:26.330Z,982.60
2023-02-25T00:52:26.867Z,982.63
2023-02-25T00:53:26.463Z,982.61
2023-02-25T00:54:26.380Z,982.64
2023-02-25T00:55:26.409Z,982.69
2023-02-25T00:56:26.367Z,982.61
2023-02-25T00:57:26.372Z,982.64
2023-02-25T00:58:26.385Z,982.64
2023-02-25T00:59:26.386Z,982.58
2023-02-25T01:00:26.370Z,982.70
2023-02-25T01:01:26.420Z,982.68
2023-02-25T01:02:26.361Z,982.79
2023-02-25T01:03:26.463Z,982.76
2023-02-25T01:04:26.429Z,982.64
2023-02-25T01:05:26.432Z,982.72
2023-02-25T01:06:27.344Z,982.68
2023-02-25T01:07:27.504Z,982.77
2023-02-25T01:08:26.284Z,982.76
2023-02-25T01:09:26.412Z,982.80
2023-02-25T01:10:26.255Z,982.87
2023-02-25T01:11:26.314Z,982.80
2023-02-25T01:12:26.235Z,982.78
2023-02-25T01:13:27.398Z,982.81
2023-02-25T01:14:26.392Z,982.80
2023-02-25T01:15:26.310Z,982.81
2023-02-25T01:16:26.538Z,982.86
2023-02-25T01:17:26.322Z,982.82
2023-02-25T01:18:26.220Z,982.82
2023-02-25T01:19:26.342Z,982.88
2023-02-25T01:20:26.717Z,982.82
2023-02-25T01:21:26.217Z,982.82
2023-02-25T01:22:26.339Z,982.94
2023-02-25T01:23:26.280Z,982.74
2023-02-25T01:24:26.225Z,982.76
2023-02-25T01:25:26.224Z,982.77
2023-02-25T01:26:26.113Z,982.85
2023-02-25T01:27:26.144Z,982.87
2023-02-25T01:28:26.053Z,982.84
2023-02-25T01:29:26.079Z,982.83
2023-02-25T01:30:26.449Z,982.87
2023-02-25T01:31:26.339Z,982.80
2023-02-25T01:32:26.356Z,982.75
2023-02-25T01:33:27.263Z,982.83
2023-02-25T01:34:27.163Z,982.83
2023-02-25T01:35:26.193Z,982.86
2023-02-25T01:36:26.186Z,982.82
2023-02-25T01:37:26.140Z,982.79
2023-02-25T01:38:26.095Z,982.87
2023-02-25T01:39:26.602Z,982.83
2023-02-25T01:40:27.081Z,982.93
2023-02-25T01:41:26.167Z,982.79
2023-02-25T01:42:26.012Z,982.89
2023-02-25T01:43:26.027Z,982.90
2023-02-25T01:44:26.052Z,982.84
2023-02-25T01:45:26.038Z,982.82
2023-02-25T01:46:26.277Z,982.87
2023-02-25T01:47:26.143Z,982.90
2023-02-25T01:48:25.999Z,982.88
2023-02-25T01:49:26.062Z,982.88
2023-02-25T01:50:25.985Z,982.95
2023-02-25T01:51:26.162Z,983.01
2023-02-25T01:52:25.956Z,982.97
2023-02-25T01:53:26.145Z,982.97
2023-02-25T01:54:26.044Z,982.91
2023-02-25T01:55:25.990Z,982.85
2023-02-25T01:56:26.032Z,982.93
2023-02-25T01:57:25.966Z,982.90
2023-02-25T01:58:25.982Z,983.08
2023-02-25T01:59:25.982Z,982.94
2023-02-25T02:00:25.937Z,982.91
2023-02-25T02:01:25.930Z,982.85
2023-02-25T02:02:25.953Z,982.88
2023-02-25T02:03:25.890Z,982.95
2023-02-25T02:04:27.416Z,982.99
2023-02-25T02:05:26.871Z,982.96
2023-02-25T02:06:25.786Z,982.95
2023-02-25T02:07:25.761Z,982.97
2023-02-25T02:08:25.810Z,982.91
2023-02-25T02:09:25.789Z,982.96
2023-02-25T02:10:25.738Z,983.12
2023-02-25T02:11:25.844Z,982.96
2023-02-25T02:12:25.880Z,982.91
2023-02-25T02:13:25.842Z,982.98
2023-02-25T02:14:25.972Z,982.92
2023-02-25T02:15:25.873Z,982.97
2023-02-25T02:16:26.188Z,983.12
2023-02-25T02:17:27.238Z,982.97
2023-02-25T02:18:25.805Z,982.85
2023-02-25T02:19:25.800Z,982.83
2023-02-25T02:20:25.881Z,982.80
2023-02-25T02:21:25.931Z,982.64
2023-02-25T02:22:25.786Z,982.68
2023-02-25T02:23:25.717Z,982.79
2023-02-25T02:24:26.790Z,982.84
2023-02-25T02:25:26.152Z,982.84
2023-02-25T02:26:25.706Z,982.87
2023-02-25T02:27:25.747Z,982.97
2023-02-25T02:28:25.741Z,982.95
2023-02-25T02:29:25.780Z,983.10
2023-02-25T02:30:25.771Z,983.20
2023-02-25T02:31:25.844Z,983.07
2023-02-25T02:32:25.888Z,982.97
2023-02-25T02:33:25.774Z,983.01
2023-02-25T02:34:25.681Z,983.04
2023-02-25T02:35:25.811Z,983.14
2023-02-25T02:36:25.749Z,983.06
2023-02-25T02:37:25.794Z,983.02
2023-02-25T02:38:25.634Z,983.02
2023-02-25T02:39:25.823Z,982.98
2023-02-25T02:40:25.652Z,982.96
2023-02-25T02:41:25.665Z,983.04
2023-02-25T02:42:25.670Z,983.02
2023-02-25T02:43:25.676Z,982.95
2023-02-25T02:44:26.613Z,982.95
2023-02-25T02:45:25.661Z,982.89
2023-02-25T02:46:25.619Z,982.91
2023-02-25T02:47:25.570Z,982.81
2023-02-25T02:48:25.554Z,982.82
2023-02-25T02:49:25.497Z,982.84
2023-02-25T02:50:26.792Z,982.85
2023-02-25T02:51:25.509Z,982.88
2023-02-25T02:52:25.664Z,982.82
2023-02-25T02:53:25.546Z,982.73
2023-02-25T02:54:25.561Z,982.76
2023-02-25T02:55:25.577Z,982.75
2023-02-25T02:56:25.603Z,982.79
2023-02-25T02:57:25.487Z,982.84
2023-02-25T02:58:25.691Z,982.84
2023-02-25T02:59:25.488Z,982.79
2023-02-25T03:00:25.570Z,982.87
2023-02-25T03:01:25.530Z,982.87
2023-02-25T03:02:25.572Z,982.80
2023-02-25T03:03:25.585Z,982.91
2023-02-25T03:04:25.552Z,982.88
2023-02-25T03:05:25.506Z,982.85
2023-02-25T03:06:25.721Z,982.89
2023-02-25T03:07:25.453Z,982.84
2023-02-25T03:08:25.410Z,982.95
2023-02-25T03:09:26.556Z,982.90
2023-02-25T03:10:25.439Z,982.93
2023-02-25T03:11:25.394Z,982.95
2023-02-25T03:12:25.424Z,982.94
2023-02-25T03:13:25.381Z,982.91
2023-02-25T03:14:25.405Z,982.85
2023-02-25T03:15:25.362Z,982.87
2023-02-25T03:16:25.793Z,982.90
2023-02-25T03:17:25.422Z,982.91
2023-02-25T03:18:25.388Z,982.92
2023-02-25T03:19:25.491Z,982.97
2023-02-25T03:20:25.421Z,982.92
2023-02-25T03:21:25.439Z,982.95
2023-02-25T03:22:25.309Z,983.07
2023-02-25T03:23:25.478Z,983.05
2023-02-25T03:24:25.325Z,983.05
2023-02-25T03:25:25.490Z,983.06
2023-02-25T03:26:25.293Z,983.11
2023-02-25T03:27:25.391Z,983.15
2023-02-25T03:28:25.286Z,983.08
2023-02-25T03:29:25.313Z,983.14
2023-02-25T03:30:25.889Z,983.19
2023-02-25T03:31:25.310Z,983.17
2023-02-25T03:32:25.348Z,983.18
2023-02-25T03:33:25.249Z,983.15
2023-02-25T03:34:25.300Z,983.13
2023-02-25T03:35:25.284Z,983.23
2023-02-25T03:36:25.401Z,983.15
2023-02-25T03:37:25.236Z,983.20
2023-02-25T03:38:25.247Z,983.16
2023-02-25T03:39:25.233Z,983.23
2023-02-25T03:40:25.153Z,983.22
2023-02-25T03:41:25.190Z,983.26
2023-02-25T03:42:25.151Z,983.22
2023-02-25T03:43:25.115Z,983.29
2023-02-25T03:44:25.269Z,983.27
2023-02-25T03:45:25.205Z,983.32
2023-02-25T03:46:25.903Z,983.35
2023-02-25T03:47:25.203Z,983.23
2023-02-25T03:48:25.249Z,983.22
2023-02-25T03:49:25.201Z,983.25
2023-02-25T03:50:25.233Z,983.35
2023-02-25T03:51:25.150Z,983.26
2023-02-25T03:52:25.226Z,983.28
2023-02-25T03:53:25.194Z,983.30
2023-02-25T03:54:25.099Z,983.32
2023-02-25T03:55:25.190Z,983.27
2023-02-25T03:56:25.399Z,983.30
2023-02-25T03:57:25.157Z,983.37
2023-02-25T03:58:25.135Z,983.31
2023-02-25T03:59:25.067Z,983.37
2023-02-25T04:00:25.080Z,983.46
2023-02-25T04:01:25.065Z,983.35
2023-02-25T04:02:25.082Z,983.43
2023-02-25T04:03:25.087Z,983.31
2023-02-25T04:04:25.108Z,983.45
2023-02-25T04:05:25.098Z,983.48
2023-02-25T04:06:55.744Z,983.42
2023-02-25T04:07:25.966Z,983.45
2023-02-25T04:08:25.061Z,983.41
2023-02-25T04:09:25.097Z,983.46
2023-02-25T04:10:25.012Z,983.51
2023-02-25T04:11:25.120Z,983.58
2023-02-25T04:12:25.037Z,983.55
2023-02-25T04:13:24.996Z,983.52
2023-02-25T04:14:24.987Z,983.54
2023-02-25T04:15:25.029Z,983.56
2023-02-25T04:16:25.227Z,983.62
2023-02-25T04:17:24.951Z,983.57
2023-02-25T04:18:24.956Z,983.60
2023-02-25T04:19:24.946Z,983.65
2023-02-25T04:20:24.950Z,983.71
2023-02-25T04:21:24.918Z,983.68
2023-02-25T04:22:24.952Z,983.69
2023-02-25T04:23:25.001Z,983.71
2023-02-25T04:24:24.931Z,983.78
2023-02-25T04:25:24.968Z,983.75
2023-02-25T04:26:25.891Z,983.71
2023-02-25T04:27:24.884Z,983.72
2023-02-25T04:28:24.961Z,983.75
2023-02-25T04:29:24.912Z,983.74
2023-02-25T04:30:25.069Z,983.77
2023-02-25T04:31:24.962Z,983.70
2023-02-25T04:32:25.818Z,983.76
2023-02-25T04:33:24.811Z,983.81
2023-02-25T04:34:24.806Z,983.76
2023-02-25T04:35:24.833Z,983.78
2023-02-25T04:36:25.162Z,983.75
2023-02-25T04:37:24.812Z,983.72
2023-02-25T04:38:24.777Z,983.79
2023-02-25T04:39:24.721Z,983.69
2023-02-25T04:40:43.561Z,983.72
2023-02-25T04:41:24.902Z,983.76
2023-02-25T04:42:24.803Z,983.65
2023-02-25T04:43:24.874Z,983.79
2023-02-25T04:44:24.715Z,983.68
2023-02-25T04:45:26.727Z,983.72
2023-02-25T04:46:26.097Z,983.76
2023-02-25T04:47:24.831Z,983.75
2023-02-25T04:48:24.739Z,983.76
2023-02-25T04:49:24.838Z,983.80
2023-02-25T04:50:24.688Z,983.76
2023-02-25T04:51:24.833Z,983.86
2023-02-25T04:52:24.760Z,983.89
2023-02-25T04:53:24.634Z,983.95
2023-02-25T04:54:24.746Z,983.97
2023-02-25T04:55:24.841Z,983.93
2023-02-25T04:56:24.900Z,983.90
2023-02-25T04:57:24.883Z,983.86
2023-02-25T04:58:24.737Z,983.94
2023-02-25T04:59:24.644Z,983.94
2023-02-25T05:00:24.640Z,983.88
2023-02-25T05:01:24.769Z,983.88
2023-02-25T05:02:24.620Z,983.92
2023-02-25T05:03:24.714Z,983.81
2023-02-25T05:04:24.665Z,983.93
2023-02-25T05:05:24.549Z,983.93
2023-02-25T05:06:24.832Z,983.88
2023-02-25T05:07:24.656Z,983.97
2023-02-25T05:08:24.551Z,983.79
2023-02-25T05:09:24.671Z,983.81
2023-02-25T05:10:24.596Z,983.85
2023-02-25T05:11:24.521Z,983.83
2023-02-25T05:12:24.647Z,983.82
2023-02-25T05:13:24.633Z,983.78
2023-02-25T05:14:24.515Z,983.79
2023-02-25T05:15:24.605Z,983.82
2023-02-25T05:16:25.062Z,983.82
2023-02-25T05:17:24.477Z,983.89
2023-02-25T05:18:24.457Z,983.83
2023-02-25T05:19:24.569Z,983.81
2023-02-25T05:20:24.501Z,983.80
2023-02-25T05:21:43.269Z,983.75
2023-02-25T05:22:38.773Z,983.74
2023-02-25T05:23:24.399Z,983.85
2023-02-25T05:24:24.631Z,983.81
2023-02-25T05:25:24.433Z,983.84
2023-02-25T05:26:24.657Z,983.85
2023-02-25T05:27:24.541Z,983.85
2023-02-25T05:28:24.389Z,983.84
2023-02-25T05:29:24.430Z,983.81
2023-02-25T05:30:24.480Z,983.80
2023-02-25T05:31:24.439Z,983.88
2023-02-25T05:32:24.425Z,983.76
2023-02-25T05:33:24.408Z,983.68
2023-02-25T05:34:24.330Z,983.83
2023-02-25T05:35:24.380Z,983.78
2023-02-25T05:36:27.783Z,983.83
2023-02-25T05:37:25.395Z,983.71
2023-02-25T05:38:24.290Z,983.70
2023-02-25T05:39:40.780Z,983.67
2023-02-25T05:40:24.312Z,983.76
2023-02-25T05:41:24.578Z,983.73
2023-02-25T05:42:24.279Z,983.70
2023-02-25T05:43:26.780Z,983.78
2023-02-25T05:44:24.282Z,983.79
2023-02-25T05:45:24.248Z,983.80
2023-02-25T05:46:24.642Z,983.81
2023-02-25T05:47:24.262Z,983.79
2023-02-25T05:48:24.282Z,983.73
2023-02-25T05:49:24.296Z,983.73
2023-02-25T05:50:24.222Z,983.74
2023-02-25T05:51:24.258Z,983.74
2023-02-25T05:52:24.241Z,983.84
2023-02-25T05:53:24.247Z,983.83
2023-02-25T05:54:24.170Z,983.80
2023-02-25T05:55:24.210Z,983.83
2023-02-25T05:56:24.572Z,983.77
2023-02-25T05:57:24.366Z,983.71
2023-02-25T05:58:24.255Z,983.71
2023-02-25T05:59:24.241Z,983.74
2023-02-25T06:00:24.362Z,983.76
2023-02-25T06:01:24.287Z,983.71
2023-02-25T06:02:24.343Z,983.79
2023-02-25T06:03:24.359Z,983.81
2023-02-25T06:04:24.317Z,983.81
2023-02-25T06:05:24.150Z,983.90
2023-02-25T06:06:24.761Z,983.97
2023-02-25T06:07:24.174Z,983.90
2023-02-25T06:08:24.196Z,983.96
2023-02-25T06:09:24.204Z,983.89
2023-02-25T06:10:24.205Z,983.87
2023-02-25T06:11:24.153Z,983.92
2023-02-25T06:12:25.255Z,983.86
2023-02-25T06:13:24.224Z,983.85
2023-02-25T06:14:24.086Z,983.85
2023-02-25T06:15:24.142Z,983.90
2023-02-25T06:16:24.490Z,983.91
2023-02-25T06:17:24.047Z,983.84
2023-02-25T06:18:24.086Z,983.95
2023-02-25T06:19:24.189Z,983.89
2023-02-25T06:20:24.048Z,983.86
2023-02-25T06:21:24.101Z,983.93
2023-02-25T06:22:24.118Z,983.91
2023-02-25T06:23:24.021Z,983.93
2023-02-25T06:24:24.247Z,983.92
2023-02-25T06:25:24.138Z,984.01
2023-02-25T06:26:24.152Z,983.96
2023-02-25T06:27:24.159Z,983.93
2023-02-25T06:28:24.108Z,983.94
2023-02-25T06:29:23.983Z,983.98
2023-02-25T06:30:24.143Z,984.02
2023-02-25T06:31:24.140Z,984.05
2023-02-25T06:32:24.189Z,984.03
2023-02-25T06:33:24.017Z,984.11
2023-02-25T06:34:24.047Z,984.18
2023-02-25T06:35:23.984Z,984.16
2023-02-25T06:36:24.515Z,984.22
2023-02-25T06:37:24.065Z,984.12
2023-02-25T06:38:23.939Z,984.11
2023-02-25T06:39:24.076Z,984.14
2023-02-25T06:40:23.984Z,984.20
2023-02-25T06:41:23.947Z,984.23
2023-02-25T06:42:23.951Z,984.19
2023-02-25T06:43:23.974Z,984.22
2023-02-25T06:44:23.891Z,984.21
2023-02-25T06:45:23.993Z,984.28
2023-02-25T06:46:24.570Z,984.25
2023-02-25T06:47:23.922Z,984.35
2023-02-25T06:48:23.993Z,984.32
2023-02-25T06:49:23.955Z,984.39
2023-02-25T06:50:23.851Z,984.34
2023-02-25T06:51:23.906Z,984.41
2023-02-25T06:52:24.098Z,984.39
2023-02-25T06:53:23.768Z,984.39
2023-02-25T06:54:23.913Z,984.33
2023-02-25T06:55:23.908Z,984.25
2023-02-25T06:56:24.044Z,984.35
2023-02-25T06:57:23.930Z,984.34
2023-02-25T06:58:23.843Z,984.36
2023-02-25T06:59:23.812Z,984.38
2023-02-25T07:00:23.874Z,984.40
2023-02-25T07:01:24.005Z,984.39
2023-02-25T07:02:23.745Z,984.35
2023-02-25T07:03:23.911Z,984.39
2023-02-25T07:04:23.892Z,984.45
2023-02-25T07:05:23.675Z,984.53
2023-02-25T07:06:24.184Z,984.47
2023-02-25T07:07:23.830Z,984.49
2023-02-25T07:08:23.699Z,984.59
2023-02-25T07:09:23.781Z,984.56
2023-02-25T07:10:23.692Z,984.59
2023-02-25T07:11:23.627Z,984.62
2023-02-25T07:12:23.643Z,984.60
2023-02-25T07:13:23.738Z,984.60
2023-02-25T07:14:23.662Z,984.62
2023-02-25T07:15:23.659Z,984.61
2023-02-25T07:16:23.965Z,984.60
2023-02-25T07:17:23.673Z,984.61
2023-02-25T07:18:23.649Z,984.62
2023-02-25T07:19:23.682Z,984.56
2023-02-25T07:20:23.599Z,984.62
2023-02-25T07:21:23.603Z,984.60
2023-02-25T07:22:24.328Z,984.59
2023-02-25T07:23:24.607Z,984.65
2023-02-25T07:24:23.558Z,984.64
2023-02-25T07:25:23.807Z,984.66
2023-02-25T07:26:23.832Z,984.63
2023-02-25T07:27:23.552Z,984.58
2023-02-25T07:28:23.528Z,984.61
2023-02-25T07:29:23.507Z,984.55
2023-02-25T07:30:23.610Z,984.60
2023-02-25T07:31:24.094Z,984.61
2023-02-25T07:32:23.852Z,984.58
2023-02-25T07:33:23.606Z,984.48
2023-02-25T07:34:23.682Z,984.63
2023-02-25T07:35:23.521Z,984.68
2023-02-25T07:36:23.762Z,984.68
2023-02-25T07:37:23.592Z,984.65
2023-02-25T07:38:23.511Z,984.66
2023-02-25T07:39:23.660Z,984.67
2023-02-25T07:40:23.637Z,984.62
2023-02-25T07:41:23.792Z,984.62
2023-02-25T07:42:23.578Z,984.71
2023-02-25T07:43:23.576Z,984.63
2023-02-25T07:44:23.450Z,984.68
2023-02-25T07:45:23.510Z,984.67
2023-02-25T07:46:23.633Z,984.68
2023-02-25T07:47:23.548Z,984.72
2023-02-25T07:48:23.507Z,984.76
2023-02-25T07:49:23.591Z,984.78
2023-02-25T07:50:23.494Z,984.63
2023-02-25T07:51:23.798Z,984.72
2023-02-25T07:52:23.880Z,984.65
2023-02-25T07:53:23.532Z,984.71
2023-02-25T07:54:23.430Z,984.69
2023-02-25T07:55:23.587Z,984.79
2023-02-25T07:56:23.455Z,984.75
2023-02-25T07:57:23.352Z,984.84
2023-02-25T07:58:23.484Z,984.83
2023-02-25T07:59:23.488Z,984.79
2023-02-25T08:00:23.416Z,984.86
2023-02-25T08:01:23.946Z,984.83
2023-02-25T08:02:23.497Z,984.85
2023-02-25T08:03:23.425Z,984.79
2023-02-25T08:04:23.438Z,984.87
2023-02-25T08:05:23.428Z,984.90
2023-02-25T08:06:23.329Z,984.86
2023-02-25T08:07:23.375Z,984.89
2023-02-25T08:08:23.382Z,984.80
2023-02-25T08:09:23.405Z,984.89
2023-02-25T08:10:23.413Z,984.83
2023-02-25T08:11:24.658Z,984.82
2023-02-25T08:12:23.364Z,984.82
2023-02-25T08:13:23.410Z,984.85
2023-02-25T08:14:23.356Z,984.91
2023-02-25T08:15:23.341Z,984.83
2023-02-25T08:16:23.500Z,984.81
2023-02-25T08:17:23.305Z,984.90
2023-02-25T08:18:23.283Z,984.87
2023-02-25T08:19:23.308Z,984.86
2023-02-25T08:20:23.397Z,984.96
2023-02-25T08:21:23.809Z,984.86
2023-02-25T08:22:23.419Z,984.86
2023-02-25T08:23:23.262Z,984.89
2023-02-25T08:24:23.401Z,984.89
2023-02-25T08:25:24.236Z,984.90
2023-02-25T08:26:23.258Z,984.97
2023-02-25T08:27:23.450Z,985.05
2023-02-25T08:28:23.140Z,985.09
2023-02-25T08:29:23.167Z,984.98
2023-02-25T08:30:23.122Z,984.99
2023-02-25T08:31:23.587Z,985.02
2023-02-25T08:32:23.256Z,985.06
2023-02-25T08:33:23.125Z,985.05
2023-02-25T08:34:33.280Z,985.13
2023-02-25T08:35:24.214Z,985.14
2023-02-25T08:36:23.283Z,985.16
2023-02-25T08:37:23.163Z,985.24
2023-02-25T08:38:23.156Z,985.27
2023-02-25T08:39:23.249Z,985.24
2023-02-25T08:40:23.133Z,985.21
2023-02-25T08:41:23.508Z,985.20
2023-02-25T08:42:23.056Z,985.17
2023-02-25T08:43:23.087Z,985.26
2023-02-25T08:44:23.036Z,985.28
2023-02-25T08:45:23.065Z,985.22
2023-02-25T08:46:23.224Z,985.23
2023-02-25T08:47:23.345Z,985.32
2023-02-25T08:48:23.115Z,985.29
2023-02-25T08:49:23.116Z,985.21
2023-02-25T08:50:23.085Z,985.16
2023-02-25T08:51:23.582Z,985.27
2023-02-25T08:52:23.106Z,985.13
2023-02-25T08:53:23.110Z,985.16
2023-02-25T08:54:23.084Z,985.18
2023-02-25T08:55:23.070Z,985.20
2023-02-25T08:56:23.075Z,985.22
2023-02-25T08:57:23.500Z,985.21
2023-02-25T08:58:23.088Z,985.20
2023-02-25T08:59:23.107Z,985.19
2023-02-25T09:00:22.966Z,985.25
2023-02-25T09:01:23.568Z,985.21
2023-02-25T09:02:23.087Z,985.13
2023-02-25T09:03:23.577Z,985.14
2023-02-25T09:04:23.380Z,985.13
2023-02-25T09:05:23.012Z,985.19
2023-02-25T09:06:22.934Z,985.08
2023-02-25T09:07:22.989Z,985.20
2023-02-25T09:08:23.309Z,985.22
2023-02-25T09:09:22.935Z,985.24
2023-02-25T09:10:23.114Z,985.23
2023-02-25T09:11:23.335Z,985.28
2023-02-25T09:12:24.754Z,985.25
2023-02-25T09:13:24.363Z,985.30
2023-02-25T09:14:24.073Z,985.28
2023-02-25T09:15:22.927Z,985.32
2023-02-25T09:16:23.011Z,985.35
2023-02-25T09:17:22.999Z,985.30
2023-02-25T09:18:22.852Z,985.25
2023-02-25T09:19:22.953Z,985.24
2023-02-25T09:20:23.071Z,985.31
2023-02-25T09:21:23.126Z,985.34
2023-02-25T09:22:22.985Z,985.38
2023-02-25T09:23:22.865Z,985.39
2023-02-25T09:24:22.898Z,985.48
2023-02-25T09:25:23.020Z,985.37
2023-02-25T09:26:22.990Z,985.42
2023-02-25T09:27:22.879Z,985.39
2023-02-25T09:28:24.640Z,985.54
2023-02-25T09:29:24.034Z,985.71
2023-02-25T09:30:22.803Z,985.56
2023-02-25T09:31:23.323Z,985.65
2023-02-25T09:32:22.953Z,985.74
2023-02-25T09:33:22.699Z,985.79
2023-02-25T09:34:23.059Z,985.83
2023-02-25T09:35:22.802Z,985.85
2023-02-25T09:36:22.753Z,985.82
2023-02-25T09:37:22.854Z,985.83
2023-02-25T09:38:22.773Z,985.81
2023-02-25T09:39:22.835Z,985.87
2023-02-25T09:40:22.936Z,985.84
2023-02-25T09:41:23.090Z,985.77
2023-02-25T09:42:22.797Z,985.80
2023-02-25T09:43:22.694Z,985.76
2023-02-25T09:44:22.623Z,985.78
2023-02-25T09:45:22.703Z,985.78
2023-02-25T09:46:22.838Z,985.84
2023-02-25T09:47:22.660Z,985.89
2023-02-25T09:48:22.709Z,985.76
2023-02-25T09:49:22.600Z,985.79
2023-02-25T09:50:22.572Z,985.77
2023-02-25T09:51:22.989Z,985.75
2023-02-25T09:52:22.560Z,985.90
2023-02-25T09:53:22.589Z,985.81
2023-02-25T09:54:22.554Z,985.87
2023-02-25T09:55:22.729Z,985.98
2023-02-25T09:56:22.738Z,985.91
2023-02-25T09:57:22.730Z,985.88
2023-02-25T09:58:22.502Z,985.91
2023-02-25T09:59:23.657Z,985.93
2023-02-25T10:00:22.571Z,985.86
2023-02-25T10:01:22.741Z,985.96
2023-02-25T10:02:22.930Z,985.93
2023-02-25T10:03:22.641Z,986.02
2023-02-25T10:04:22.499Z,986.05
2023-02-25T10:05:22.619Z,986.01
2023-02-25T10:06:22.587Z,986.08
2023-02-25T10:07:22.946Z,986.04
2023-02-25T10:08:22.932Z,986.00
2023-02-25T10:09:22.563Z,986.05
2023-02-25T10:10:23.166Z,986.03
2023-02-25T10:11:23.057Z,985.96
2023-02-25T10:12:22.601Z,985.97
2023-02-25T10:13:22.613Z,985.98
2023-02-25T10:14:22.751Z,985.98
2023-02-25T10:15:22.651Z,985.98
2023-02-25T10:16:22.460Z,985.99
2023-02-25T10:17:22.614Z,985.98
2023-02-25T10:18:22.809Z,985.82
2023-02-25T10:19:22.543Z,985.93
2023-02-25T10:20:22.580Z,985.91
2023-02-25T10:21:22.848Z,985.87
2023-02-25T10:22:22.410Z,985.93
2023-02-25T10:23:22.521Z,985.91
2023-02-25T10:24:22.514Z,985.93
2023-02-25T10:25:22.375Z,985.88
2023-02-25T10:26:22.526Z,985.95
2023-02-25T10:27:22.395Z,985.87
2023-02-25T10:28:23.293Z,985.91
2023-02-25T10:29:22.498Z,985.94
2023-02-25T10:30:22.418Z,985.93
2023-02-25T10:31:22.869Z,986.01
2023-02-25T10:32:29.446Z,985.99
2023-02-25T10:33:22.422Z,985.96
2023-02-25T10:34:22.268Z,986.01
2023-02-25T10:35:22.407Z,985.97
2023-02-25T10:36:22.389Z,986.02
2023-02-25T10:37:22.306Z,986.10
2023-02-25T10:38:22.480Z,986.05
2023-02-25T10:39:22.381Z,986.06
2023-02-25T10:40:22.367Z,986.12
2023-02-25T10:41:22.636Z,986.09
2023-02-25T10:42:22.483Z,986.09
2023-02-25T10:43:22.339Z,986.11
2023-02-25T10:44:22.216Z,986.02
2023-02-25T10:45:22.297Z,986.16
2023-02-25T10:46:22.444Z,986.07
2023-02-25T10:47:22.288Z,986.10
2023-02-25T10:48:22.282Z,986.15
2023-02-25T10:49:22.166Z,986.05
2023-02-25T10:50:24.297Z,986.07
2023-02-25T10:51:23.544Z,986.07
2023-02-25T10:52:22.197Z,986.12
2023-02-25T10:53:24.166Z,986.10
2023-02-25T10:54:23.175Z,986.11
2023-02-25T10:55:22.215Z,986.03
2023-02-25T10:56:22.237Z,986.03
2023-02-25T10:57:22.192Z,986.03
2023-02-25T10:58:22.070Z,986.00
2023-02-25T10:59:22.348Z,986.01
2023-02-25T11:00:22.329Z,986.00
2023-02-25T11:01:22.644Z,985.97
2023-02-25T11:02:22.285Z,986.02
2023-02-25T11:03:22.320Z,986.02
2023-02-25T11:04:22.262Z,985.96
2023-02-25T11:05:22.224Z,986.05
2023-02-25T11:06:23.277Z,985.94
2023-02-25T11:07:23.493Z,986.00
2023-02-25T11:08:22.259Z,986.08
2023-02-25T11:09:22.216Z,986.17
2023-02-25T11:10:22.131Z,986.45
2023-02-25T11:11:22.342Z,986.58
2023-02-25T11:12:22.122Z,986.59
2023-02-25T11:13:22.260Z,986.49
2023-02-25T11:14:22.223Z,986.60
2023-02-25T11:15:27.191Z,986.64
2023-02-25T11:16:23.183Z,986.57
2023-02-25T11:17:22.172Z,986.57
2023-02-25T11:18:22.535Z,986.65
2023-02-25T11:19:22.152Z,986.61
2023-02-25T11:20:22.166Z,986.73
2023-02-25T11:21:22.613Z,986.72
2023-02-25T11:22:22.169Z,986.66
2023-02-25T11:23:22.347Z,986.69
2023-02-25T11:24:22.262Z,986.55
2023-02-25T11:25:22.185Z,986.58
2023-02-25T11:26:22.705Z,986.56
2023-02-25T11:27:22.093Z,986.54
2023-02-25T11:28:21.985Z,986.53
2023-02-25T11:29:22.230Z,986.57
2023-02-25T11:30:22.311Z,986.57
2023-02-25T11:31:22.428Z,986.57
2023-02-25T11:32:22.224Z,986.54
2023-02-25T11:33:22.146Z,986.56
2023-02-25T11:34:22.041Z,986.49
2023-02-25T11:35:22.259Z,986.48
2023-02-25T11:36:22.552Z,986.55
2023-02-25T11:37:22.465Z,986.60
2023-02-25T11:38:21.951Z,986.63
2023-02-25T11:39:22.140Z,986.58
2023-02-25T11:40:22.254Z,986.59
2023-02-25T11:41:22.355Z,986.69
2023-02-25T11:42:21.930Z,986.62
2023-02-25T11:43:24.945Z,986.51
2023-02-25T11:44:21.777Z,986.59
2023-02-25T11:45:22.088Z,986.59
2023-02-25T11:46:22.162Z,986.54
2023-02-25T11:47:21.811Z,986.50
2023-02-25T11:48:21.755Z,986.58
2023-02-25T11:49:21.776Z,986.62
2023-02-25T11:50:21.776Z,986.57
2023-02-25T11:51:21.853Z,986.52
2023-02-25T11:52:21.901Z,986.58
2023-02-25T11:53:21.907Z,986.51
2023-02-25T11:54:22.073Z,986.55
2023-02-25T11:55:21.859Z,986.59
2023-02-25T11:56:21.889Z,986.62
2023-02-25T11:57:21.910Z,986.51
2023-02-25T11:58:21.969Z,986.58
2023-02-25T11:59:21.793Z,986.66
2023-02-25T12:00:21.797Z,986.65
2023-02-25T12:01:21.925Z,986.64
2023-02-25T12:02:22.213Z,986.64
2023-02-25T12:03:22.075Z,986.60
2023-02-25T12:04:31.732Z,986.59
2023-02-25T12:05:22.890Z,986.61
2023-02-25T12:06:22.507Z,986.63
2023-02-25T12:07:22.141Z,986.71
2023-02-25T12:08:22.222Z,986.73
2023-02-25T12:09:22.209Z,986.68
2023-02-25T12:10:21.927Z,986.71
2023-02-25T12:11:23.319Z,986.76
2023-02-25T12:12:21.916Z,986.70
2023-02-25T12:13:22.177Z,986.78
2023-02-25T12:14:21.593Z,986.72
2023-02-25T12:15:21.799Z,986.74
2023-02-25T12:16:21.959Z,986.73
2023-02-25T12:17:21.689Z,986.78
2023-02-25T12:18:21.864Z,986.77
2023-02-25T12:19:22.369Z,986.73
2023-02-25T12:20:21.642Z,986.80
2023-02-25T12:21:22.172Z,986.83
2023-02-25T12:22:21.612Z,986.85
2023-02-25T12:23:21.646Z,986.83
2023-02-25T12:24:21.640Z,986.87
2023-02-25T12:25:21.696Z,986.81
2023-02-25T12:26:21.549Z,986.86
2023-02-25T12:27:21.666Z,986.78
2023-02-25T12:28:21.809Z,986.83